Time;durP1;ratioP1;P1;durP2;ratioP2;P2;SDS_P1;SDS_P2;PMS_P1;PMS_P2;Temp;Humidity;BMP_temperature;BMP_pressure;BME280_temperature;BME280_humidity;BME280_pressure;Samples;Min_cycle;Max_cycle;Signal;HPM_P1;HPM_P2
2022/09/15 00:01:37;;;;;;;15.90;13.90;;;;;;;15.73;100.00;98201.53;5114651;28;20023;-80
2022/09/15 00:04:04;;;;;;;15.85;14.25;;;;;;;15.73;100.00;98203.34;5114785;28;20039;-80
2022/09/15 00:06:30;;;;;;;15.50;13.95;;;;;;;15.76;100.00;98217.03;5114637;28;20015;-80
2022/09/15 00:08:55;;;;;;;16.40;13.98;;;;;;;15.75;100.00;98211.88;5114874;28;20102;-80
2022/09/15 00:11:24;;;;;;;18.20;16.02;;;;;;;15.74;100.00;98208.44;5114504;28;20091;-80
2022/09/15 00:13:51;;;;;;;16.33;14.65;;;;;;;15.71;100.00;98204.28;5114914;28;20015;-80
2022/09/15 00:16:19;;;;;;;19.90;16.13;;;;;;;15.71;100.00;98193.78;5114811;28;20051;-80
2022/09/15 00:18:45;;;;;;;19.40;17.40;;;;;;;15.75;100.00;98190.88;5114658;28;20038;-80
2022/09/15 00:21:14;;;;;;;20.05;17.92;;;;;;;15.66;100.00;98171.56;5114908;28;20015;-80
2022/09/15 00:23:39;;;;;;;22.23;19.30;;;;;;;15.63;100.00;98172.66;5114368;28;20030;-80
2022/09/15 00:26:07;;;;;;;24.27;19.58;;;;;;;15.58;100.00;98163.53;5114326;28;20024;-80
2022/09/15 00:28:33;;;;;;;26.13;21.75;;;;;;;15.61;100.00;98171.94;5112920;28;20031;-80
2022/09/15 00:30:58;;;;;;;25.83;22.80;;;;;;;15.51;100.00;98160.63;5114532;28;20020;-80
2022/09/15 00:33:24;;;;;;;26.95;20.88;;;;;;;15.50;100.00;98161.59;5114258;28;20104;-80
2022/09/15 00:35:52;;;;;;;23.05;20.70;;;;;;;15.47;100.00;98164.50;5114387;28;20372;-80
2022/09/15 00:38:18;;;;;;;24.23;21.33;;;;;;;15.44;100.00;98175.28;5114261;28;20622;-80
2022/09/15 00:40:48;;;;;;;25.58;22.15;;;;;;;15.40;100.00;98172.09;5113561;28;20027;-80
2022/09/15 00:43:15;;;;;;;25.10;22.55;;;;;;;15.38;100.00;98175.81;5114169;27;20620;-80
2022/09/15 00:45:41;;;;;;;27.45;23.48;;;;;;;15.32;100.00;98160.63;5112691;28;20015;-80
2022/09/15 00:48:17;;;;;;;27.98;23.55;;;;;;;15.28;100.00;98154.81;5114092;27;20110;-80
2022/09/15 00:50:48;;;;;;;28.67;25.70;;;;;;;15.25;100.00;98149.03;5113901;28;20016;-80
2022/09/15 00:53:15;;;;;;;28.75;25.38;;;;;;;15.29;100.00;98159.09;5113956;28;20026;-80
2022/09/15 00:55:46;;;;;;;26.77;23.80;;;;;;;15.22;100.00;98150.97;5113809;28;20031;-80
2022/09/15 00:58:35;;;;;;;27.15;23.67;;;;;;;15.28;100.00;98161.88;5114010;28;20037;-80
2022/09/15 01:01:04;;;;;;;27.38;24.50;;;;;;;15.19;100.00;98148.63;5113741;28;20106;-80
2022/09/15 01:03:32;;;;;;;25.98;23.00;;;;;;;15.22;100.00;98166.72;5113528;28;20533;-80
2022/09/15 01:06:15;;;;;;;28.30;22.92;;;;;;;15.17;100.00;98161.06;5113430;28;20043;-80
2022/09/15 01:08:58;;;;;;;25.08;22.33;;;;;;;15.14;100.00;98160.50;5113597;28;20138;-80
2022/09/15 01:11:24;;;;;;;24.80;20.38;;;;;;;15.12;100.00;98171.09;5113406;28;20098;-80
2022/09/15 01:13:49;;;;;;;24.25;20.77;;;;;;;15.14;100.00;98181.47;5113803;28;20582;-80
2022/09/15 01:16:33;;;;;;;25.55;21.15;;;;;;;15.12;100.00;98178.13;5113841;28;20023;-80
2022/09/15 01:19:04;;;;;;;21.88;19.50;;;;;;;15.10;100.00;98185.31;5113679;28;20027;-80
2022/09/15 01:22:13;;;;;;;21.42;19.00;;;;;;;15.07;100.00;98178.53;5113340;28;20023;-80
2022/09/15 01:25:05;;;;;;;24.00;20.58;;;;;;;15.09;100.00;98181.88;5070080;28;20024;-80
2022/09/15 01:27:45;;;;;;;24.35;19.13;;;;;;;15.08;100.00;98174.94;5010264;28;20033;-80
2022/09/15 01:30:20;;;;;;;25.15;18.42;;;;;;;15.02;100.00;98172.06;5010913;28;20034;-80
2022/09/15 01:33:21;;;;;;;18.88;15.63;;;;;;;14.99;100.00;98178.41;5010092;28;20576;-80
2022/09/15 01:35:49;;;;;;;16.85;13.70;;;;;;;14.95;100.00;98177.81;4971183;28;20468;-81
2022/09/15 01:38:27;;;;;;;13.90;10.98;;;;;;;14.88;100.00;98181.16;4971243;28;20121;-80
2022/09/15 01:40:58;;;;;;;9.77;8.15;;;;;;;14.81;100.00;98186.09;4971344;28;20039;-80
2022/09/15 01:43:25;;;;;;;15.88;8.20;;;;;;;14.72;100.00;98182.47;4971166;28;20027;-80
2022/09/15 01:45:51;;;;;;;12.23;7.90;;;;;;;14.67;100.00;98182.06;4971182;28;20043;-80
2022/09/15 01:48:20;;;;;;;10.20;7.85;;;;;;;14.71;100.00;98191.31;4971211;28;20029;-80
2022/09/15 01:50:54;;;;;;;12.35;7.85;;;;;;;14.69;100.00;98179.28;4970932;28;20082;-80
2022/09/15 01:53:22;;;;;;;11.05;7.32;;;;;;;14.65;100.00;98160.38;4970378;28;20037;-80
2022/09/15 01:56:04;;;;;;;14.07;6.97;;;;;;;14.67;100.00;98184.69;4970931;28;20038;-80
2022/09/15 01:58:29;;;;;;;12.38;7.53;;;;;;;14.64;100.00;98189.34;4990011;28;20479;-80
2022/09/15 02:01:02;;;;;;;15.02;7.50;;;;;;;14.62;100.00;98194.72;5009992;28;20038;-80
2022/09/15 02:03:34;;;;;;;11.20;7.95;;;;;;;14.57;100.00;98186.41;5015380;28;20049;-80
2022/09/15 02:06:13;;;;;;;13.38;8.65;;;;;;;14.64;100.00;98197.22;5049267;28;20033;-80
2022/09/15 02:08:48;;;;;;;13.93;9.55;;;;;;;14.59;100.00;98192.38;5049350;28;20078;-80
2022/09/15 02:11:27;;;;;;;12.85;8.98;;;;;;;14.62;100.00;98207.84;5049663;28;20111;-80
2022/09/15 02:14:16;;;;;;;12.32;9.32;;;;;;;14.60;100.00;98196.63;5112574;28;20020;-80
2022/09/15 02:16:45;;;;;;;13.18;9.60;;;;;;;14.57;100.00;98196.06;5112500;28;20087;-80
2022/09/15 02:19:16;;;;;;;13.70;9.63;;;;;;;14.60;100.00;98201.06;5112594;28;20026;-80
2022/09/15 02:22:16;;;;;;;15.93;9.13;;;;;;;14.55;100.00;98206.69;5112472;28;20376;-80
2022/09/15 02:24:48;;;;;;;14.70;8.77;;;;;;;14.53;100.00;98210.38;5069226;28;20373;-80
2022/09/15 02:27:22;;;;;;;14.32;8.43;;;;;;;14.44;100.00;98202.31;5069270;28;20154;-80
2022/09/15 02:29:50;;;;;;;14.57;8.18;;;;;;;14.45;100.00;98218.88;5069117;28;20036;-80
2022/09/15 02:32:19;;;;;;;12.25;7.13;;;;;;;14.40;100.00;98216.63;5069411;28;20040;-80
2022/09/15 02:34:50;;;;;;;11.82;6.80;;;;;;;14.38;100.00;98220.38;5069200;28;20510;-80
2022/09/15 02:37:18;;;;;;;11.20;5.10;;;;;;;14.29;100.00;98214.13;5069332;28;20082;-80
2022/09/15 02:39:48;;;;;;;10.35;4.53;;;;;;;14.18;100.00;98203.72;5069162;28;20107;-80
2022/09/15 02:42:30;;;;;;;10.73;5.03;;;;;;;14.20;100.00;98214.91;5069308;28;20028;-80
2022/09/15 02:44:57;;;;;;;9.02;4.93;;;;;;;14.17;100.00;98208.13;5069570;28;20307;-80
2022/09/15 02:47:23;;;;;;;8.68;4.50;;;;;;;14.09;100.00;98207.13;5069126;28;20036;-80
2022/09/15 02:49:48;;;;;;;11.75;5.22;;;;;;;14.02;100.00;98203.34;5068942;28;20086;-80
2022/09/15 02:52:14;;;;;;;10.95;5.22;;;;;;;14.01;100.00;98212.16;5069262;28;20024;-80
2022/09/15 02:54:39;;;;;;;11.95;6.03;;;;;;;14.00;100.00;98205.28;5052172;28;20051;-80
2022/09/15 02:57:05;;;;;;;11.55;6.70;;;;;;;13.98;100.00;98205.38;5069176;28;20044;-80
2022/09/15 03:00:12;;;;;;;14.68;7.40;;;;;;;14.01;100.00;98210.38;5077375;28;20042;-80
2022/09/15 03:02:19;;;;;;;13.82;7.53;;;;;;;13.95;100.00;98201.25;5111971;28;20078;-80
2022/09/15 03:04:45;;;;;;;11.85;7.70;;;;;;;13.97;100.00;98198.50;5114970;28;20043;-80
2022/09/15 03:07:10;;;;;;;11.90;7.32;;;;;;;13.98;100.00;98208.81;5116156;28;20015;-80
2022/09/15 03:09:36;;;;;;;11.55;7.65;;;;;;;13.94;100.00;98209.22;5115911;28;20371;-80
2022/09/15 03:12:02;;;;;;;11.48;6.95;;;;;;;13.89;100.00;98204.34;5116032;28;20139;-80
2022/09/15 03:14:28;;;;;;;10.68;6.45;;;;;;;13.97;100.00;98211.59;5115817;28;20063;-80
2022/09/15 03:16:54;;;;;;;12.20;5.88;;;;;;;13.94;100.00;98215.28;5115494;28;20023;-80
2022/09/15 03:19:19;;;;;;;9.88;5.93;;;;;;;13.93;100.00;98207.56;5115952;28;20016;-80
2022/09/15 03:21:44;;;;;;;14.35;6.82;;;;;;;13.91;100.00;98205.09;5115734;28;20015;-80
2022/09/15 03:24:09;;;;;;;14.70;6.15;;;;;;;13.88;100.00;98200.09;5115811;28;20356;-80
2022/09/15 03:26:35;;;;;;;11.80;5.85;;;;;;;13.94;100.00;98230.16;5115664;27;20380;-80
2022/09/15 03:29:00;;;;;;;9.00;5.50;;;;;;;13.88;100.00;98226.25;5115561;28;20482;-80
2022/09/15 03:31:25;;;;;;;15.00;6.93;;;;;;;13.95;100.00;98250.16;5115388;28;20102;-80
2022/09/15 03:33:53;;;;;;;14.88;7.35;;;;;;;13.92;100.00;98226.84;5115587;28;20468;-80
2022/09/15 03:36:19;;;;;;;11.95;6.40;;;;;;;13.91;100.00;98223.41;5115423;28;20482;-80
2022/09/15 03:38:44;;;;;;;15.15;7.15;;;;;;;13.91;100.00;98236.50;5115296;28;20019;-80
2022/09/15 03:41:11;;;;;;;13.20;7.32;;;;;;;13.86;100.00;98241.28;5115719;27;20072;-80
2022/09/15 03:43:37;;;;;;;13.60;8.27;;;;;;;13.85;100.00;98249.25;5115126;27;20027;-81
2022/09/15 03:46:05;;;;;;;18.33;9.38;;;;;;;13.93;100.00;98275.63;5115123;28;20058;-81
2022/09/15 03:48:33;;;;;;;16.17;9.30;;;;;;;13.93;100.00;98271.22;5115494;28;20027;-80
2022/09/15 03:50:59;;;;;;;14.07;8.57;;;;;;;13.91;100.00;98260.03;5114165;28;20477;-80
2022/09/15 03:53:24;;;;;;;18.13;10.10;;;;;;;13.92;100.00;98258.25;5115282;28;20027;-80
2022/09/15 03:55:50;;;;;;;12.45;8.95;;;;;;;13.96;100.00;98249.19;5115092;28;20034;-80
2022/09/15 03:58:17;;;;;;;16.10;10.75;;;;;;;14.03;100.00;98259.97;5114904;28;20035;-80
2022/09/15 04:00:44;;;;;;;17.08;11.05;;;;;;;14.04;100.00;98264.28;5114562;28;20137;-80
2022/09/15 04:03:09;;;;;;;16.15;10.48;;;;;;;14.05;100.00;98263.31;5114987;28;20027;-80
2022/09/15 04:05:35;;;;;;;12.23;9.95;;;;;;;14.09;100.00;98264.72;5114529;28;20044;-80
2022/09/15 04:08:01;;;;;;;15.70;10.27;;;;;;;14.13;100.00;98268.75;5114677;28;20076;-80
2022/09/15 04:10:26;;;;;;;15.25;9.98;;;;;;;14.12;100.00;98260.06;5114710;28;20144;-80
2022/09/15 04:12:52;;;;;;;14.88;10.18;;;;;;;14.13;100.00;98264.31;5114644;28;20022;-80
2022/09/15 04:15:19;;;;;;;17.67;10.38;;;;;;;14.06;100.00;98267.56;5113336;28;20024;-80
2022/09/15 04:17:45;;;;;;;14.65;10.05;;;;;;;14.04;100.00;98266.88;5114282;28;20153;-80
2022/09/15 04:20:11;;;;;;;14.65;10.20;;;;;;;14.11;100.00;98281.94;5114578;28;20051;-80
2022/09/15 04:22:36;;;;;;;15.63;10.25;;;;;;;14.09;100.00;98276.00;5114578;28;20015;-80
2022/09/15 04:25:01;;;;;;;12.32;9.43;;;;;;;14.06;100.00;98276.25;5114450;28;20096;-80
2022/09/15 04:27:27;;;;;;;12.55;10.20;;;;;;;14.09;100.00;98294.34;5114376;28;20030;-80
2022/09/15 04:29:53;;;;;;;14.85;10.13;;;;;;;14.09;100.00;98304.81;5114136;27;20444;-80
2022/09/15 04:32:19;;;;;;;13.73;9.27;;;;;;;14.10;100.00;98308.25;5114385;28;20486;-80
2022/09/15 04:34:45;;;;;;;13.98;9.73;;;;;;;14.05;100.00;98294.72;5113991;28;20097;-80
2022/09/15 04:37:11;;;;;;;14.00;8.68;;;;;;;14.11;100.00;98288.97;5113013;28;20460;-80
2022/09/15 04:39:36;;;;;;;14.82;8.60;;;;;;;14.08;100.00;98303.16;5114047;28;20049;-80
2022/09/15 04:42:04;;;;;;;11.15;8.82;;;;;;;14.07;100.00;98293.63;5114468;28;20372;-80
2022/09/15 04:44:30;;;;;;;14.32;9.55;;;;;;;14.13;100.00;98302.78;5114344;28;20027;-80
2022/09/15 04:46:56;;;;;;;12.43;8.05;;;;;;;14.12;100.00;98293.28;5113981;28;20544;-80
2022/09/15 04:49:21;;;;;;;13.77;7.82;;;;;;;14.01;100.00;98291.53;5114242;28;20023;-80
2022/09/15 04:51:46;;;;;;;11.95;7.90;;;;;;;14.08;100.00;98289.25;5113889;28;20099;-80
2022/09/15 04:54:12;;;;;;;10.52;7.72;;;;;;;14.10;100.00;98303.03;5114002;27;20019;-81
2022/09/15 04:56:38;;;;;;;11.50;8.07;;;;;;;14.11;100.00;98295.03;5112408;28;20110;-80
2022/09/15 04:59:03;;;;;;;12.13;7.47;;;;;;;14.07;100.00;98288.38;5114094;28;20019;-80
2022/09/15 05:01:32;;;;;;;12.10;7.55;;;;;;;14.10;100.00;98293.38;5113959;28;20055;-80
2022/09/15 05:04:02;;;;;;;12.55;7.75;;;;;;;14.15;100.00;98301.66;5113587;28;20024;-81
2022/09/15 05:06:28;;;;;;;13.18;7.88;;;;;;;14.17;100.00;98297.16;5113861;28;20464;-81
2022/09/15 05:08:55;;;;;;;12.02;7.25;;;;;;;14.17;100.00;98294.53;5113793;28;20084;-81
2022/09/15 05:11:22;;;;;;;10.68;7.03;;;;;;;14.17;100.00;98291.91;5113554;28;20094;-80
2022/09/15 05:13:47;;;;;;;10.68;7.22;;;;;;;14.18;100.00;98290.13;5113508;27;20028;-81
2022/09/15 05:16:19;;;;;;;10.38;7.07;;;;;;;14.21;100.00;98293.31;5113691;28;20016;-81
2022/09/15 05:18:46;;;;;;;13.45;7.60;;;;;;;14.24;100.00;98300.06;5113235;28;20421;-80
2022/09/15 05:21:14;;;;;;;11.68;7.22;;;;;;;14.18;100.00;98290.94;5113487;28;20046;-80
2022/09/15 05:23:39;;;;;;;10.40;7.03;;;;;;;14.17;100.00;98291.91;5113184;28;20059;-80
2022/09/15 05:26:07;;;;;;;16.42;6.47;;;;;;;14.29;100.00;98304.97;5112966;28;20047;-80
2022/09/15 05:28:35;;;;;;;11.88;7.18;;;;;;;14.33;100.00;98316.84;5113408;28;20019;-80
2022/09/15 05:31:00;;;;;;;10.57;7.25;;;;;;;14.32;100.00;98318.59;5113147;28;20030;-80
2022/09/15 05:33:26;;;;;;;13.13;6.82;;;;;;;14.29;100.00;98324.13;5113560;28;20372;-80
2022/09/15 05:35:55;;;;;;;14.77;7.30;;;;;;;14.26;100.00;98324.38;5112902;28;20020;-80
2022/09/15 05:38:21;;;;;;;10.30;6.53;;;;;;;14.23;100.00;98329.84;5112994;28;20088;-80
2022/09/15 05:40:46;;;;;;;8.75;6.47;;;;;;;14.27;100.00;98336.50;5112995;28;20452;-80
2022/09/15 05:43:12;;;;;;;12.15;7.30;;;;;;;14.26;100.00;98332.22;5113456;28;20027;-80
2022/09/15 05:45:37;;;;;;;12.75;7.53;;;;;;;14.18;100.00;98327.63;5113107;28;20068;-80
2022/09/15 05:48:03;;;;;;;12.38;7.22;;;;;;;14.23;100.00;98328.06;5112720;28;20046;-80
2022/09/15 05:50:32;;;;;;;11.00;8.52;;;;;;;14.24;100.00;98331.50;5112874;28;20019;-80
2022/09/15 05:52:57;;;;;;;12.82;7.60;;;;;;;14.32;100.00;98326.47;5112593;27;20051;-80
2022/09/15 05:55:23;;;;;;;17.40;9.25;;;;;;;14.41;100.00;98338.81;5113005;28;20100;-80
2022/09/15 05:57:48;;;;;;;13.55;7.80;;;;;;;14.51;100.00;98340.69;5112600;28;20023;-80
2022/09/15 06:00:14;;;;;;;11.43;8.50;;;;;;;14.64;100.00;98343.94;5112692;28;20534;-81
2022/09/15 06:02:39;;;;;;;13.27;8.68;;;;;;;14.84;100.00;98343.09;5112830;28;20103;-80
2022/09/15 06:05:05;;;;;;;16.23;8.52;;;;;;;15.07;100.00;98338.50;5112951;28;20066;-80
2022/09/15 06:07:30;;;;;;;14.50;10.65;;;;;;;15.18;100.00;98329.72;5112529;28;20016;-81
2022/09/15 06:09:56;;;;;;;14.15;8.85;;;;;;;15.22;100.00;98339.81;5112280;28;20030;-81
2022/09/15 06:12:22;;;;;;;13.80;8.50;;;;;;;15.30;100.00;98333.09;5111435;28;20030;-81
2022/09/15 06:14:49;;;;;;;14.65;9.38;;;;;;;15.30;100.00;98319.97;5112420;28;20118;-81
2022/09/15 06:17:18;;;;;;;15.43;8.68;;;;;;;15.24;100.00;98316.06;5112656;28;20027;-80
2022/09/15 06:19:44;;;;;;;16.05;8.10;;;;;;;15.23;100.00;98333.59;5112345;28;20051;-81
2022/09/15 06:22:10;;;;;;;14.07;8.13;;;;;;;15.19;100.00;98334.81;5112532;28;20099;-80
2022/09/15 06:24:35;;;;;;;14.75;8.38;;;;;;;15.21;100.00;98335.53;5112765;28;20020;-80
2022/09/15 06:27:00;;;;;;;9.10;7.00;;;;;;;15.20;100.00;98335.66;5112328;28;20089;-81
2022/09/15 06:29:27;;;;;;;10.68;7.22;;;;;;;15.47;100.00;98335.88;5112496;28;20023;-80
2022/09/15 06:31:53;;;;;;;9.13;7.30;;;;;;;15.67;100.00;98338.56;5112236;28;20024;-81
2022/09/15 06:34:18;;;;;;;14.85;7.63;;;;;;;15.98;100.00;98339.31;5112285;28;20136;-80
2022/09/15 06:36:44;;;;;;;11.68;6.90;;;;;;;16.31;100.00;98353.81;5112037;28;20028;-81
2022/09/15 06:39:09;;;;;;;9.05;6.07;;;;;;;16.71;100.00;98340.47;5114787;28;20341;-81
2022/09/15 06:41:34;;;;;;;10.27;6.88;;;;;;;17.27;100.00;98351.09;5116687;28;20019;-81
2022/09/15 06:44:00;;;;;;;12.00;6.20;;;;;;;17.15;100.00;98351.31;5116466;28;20066;-81
2022/09/15 06:46:27;;;;;;;7.53;5.60;;;;;;;16.87;100.00;98333.81;5116432;28;20024;-81
2022/09/15 06:48:53;;;;;;;9.15;5.90;;;;;;;17.02;100.00;98345.53;5116191;28;20023;-81
2022/09/15 06:51:21;;;;;;;10.45;4.97;;;;;;;17.08;100.00;98341.50;5115259;28;20082;-81
2022/09/15 06:53:47;;;;;;;12.60;5.68;;;;;;;17.33;100.00;98343.47;5116246;28;20027;-81
2022/09/15 06:56:18;;;;;;;11.35;6.03;;;;;;;18.19;100.00;98340.44;5116388;28;20024;-81
2022/09/15 06:58:45;;;;;;;9.93;5.47;;;;;;;19.06;100.00;98344.03;5116349;28;20031;-81
2022/09/15 07:01:18;;;;;;;9.65;5.03;;;;;;;19.56;97.59;98344.09;5116087;28;20022;-81
2022/09/15 07:03:44;;;;;;;7.60;4.72;;;;;;;20.37;94.15;98350.50;5115909;28;20043;-81
2022/09/15 07:06:11;;;;;;;12.00;4.78;;;;;;;20.74;91.49;98351.84;5116246;28;20365;-81
2022/09/15 07:08:37;;;;;;;9.80;4.68;;;;;;;21.38;87.52;98336.78;5116255;28;20051;-81
2022/09/15 07:11:02;;;;;;;7.15;4.70;;;;;;;22.02;86.10;98348.03;5115756;28;20527;-81
2022/09/15 07:13:29;;;;;;;8.73;4.45;;;;;;;22.95;83.16;98341.63;5116068;28;20054;-81
2022/09/15 07:15:57;;;;;;;8.70;4.57;;;;;;;24.95;76.87;98342.78;5114407;28;20031;-81
2022/09/15 07:18:23;;;;;;;10.13;3.88;;;;;;;27.67;68.53;98358.34;5115751;28;20019;-81
2022/09/15 07:20:49;;;;;;;6.13;3.75;;;;;;;30.40;60.62;98370.81;5115559;28;20345;-81
2022/09/15 07:23:15;;;;;;;9.02;4.40;;;;;;;32.19;54.71;98362.88;5115893;28;20191;-81
2022/09/15 07:25:44;;;;;;;7.07;3.53;;;;;;;32.13;52.08;98379.19;5116135;28;20170;-82
2022/09/15 07:28:15;;;;;;;8.15;3.42;;;;;;;30.23;55.36;98381.41;5115386;28;20023;-82
2022/09/15 07:30:42;;;;;;;6.03;3.40;;;;;;;29.14;56.27;98389.28;5115650;28;20360;-81
2022/09/15 07:33:10;;;;;;;6.40;3.42;;;;;;;30.11;55.49;98392.06;5115089;28;20039;-81
2022/09/15 07:35:43;;;;;;;6.40;3.42;;;;;;;31.77;51.28;98395.47;5115804;28;20031;-81
2022/09/15 07:38:09;;;;;;;6.18;3.08;;;;;;;31.23;52.32;98388.66;5103676;28;20093;-79
2022/09/15 07:40:36;;;;;;;9.50;3.72;;;;;;;32.22;49.77;98392.03;5095063;28;20415;-79
2022/09/15 07:43:02;;;;;;;6.28;3.58;;;;;;;31.32;51.60;98399.91;5094609;28;20016;-79
2022/09/15 07:45:27;;;;;;;7.45;3.58;;;;;;;32.52;49.42;98393.66;5094540;28;20020;-79
2022/09/15 07:47:53;;;;;;;7.18;3.47;;;;;;;31.48;49.33;98396.50;5094871;28;20028;-79
2022/09/15 07:50:19;;;;;;;8.32;3.33;;;;;;;32.60;48.36;98397.81;5094767;28;20024;-79
2022/09/15 07:52:44;;;;;;;5.53;2.95;;;;;;;33.14;46.10;98404.34;5095216;28;20449;-79
2022/09/15 07:55:09;;;;;;;5.25;2.92;;;;;;;31.35;49.24;98412.88;5094648;28;20434;-79
2022/09/15 07:57:35;;;;;;;7.85;2.60;;;;;;;29.53;52.53;98414.84;5094695;28;20499;-79
2022/09/15 08:00:01;;;;;;;8.13;2.90;;;;;;;28.20;56.03;98409.75;5094265;28;20492;-79
2022/09/15 08:02:26;;;;;;;6.40;3.53;;;;;;;27.21;58.08;98402.09;5094711;28;20012;-79
2022/09/15 08:04:52;;;;;;;6.72;3.10;;;;;;;26.36;60.94;98420.53;5094285;28;20036;-78
2022/09/15 08:07:17;;;;;;;9.07;3.80;;;;;;;25.60;62.12;98410.81;5094490;28;20016;-79
2022/09/15 08:09:43;;;;;;;5.88;2.90;;;;;;;24.84;64.56;98417.88;5094604;28;20490;-79
2022/09/15 08:12:09;;;;;;;8.10;3.40;;;;;;;24.11;67.26;98420.63;5094173;28;20044;-79
2022/09/15 08:14:35;;;;;;;6.18;3.17;;;;;;;23.85;68.40;98425.63;5110199;28;20456;-78
2022/09/15 08:17:03;;;;;;;5.80;3.22;;;;;;;23.65;69.34;98412.13;5104192;28;20023;-78
2022/09/15 08:19:29;;;;;;;7.63;3.60;;;;;;;23.62;70.24;98423.91;5102893;28;20020;-78
2022/09/15 08:21:54;;;;;;;4.57;2.72;;;;;;;23.50;70.87;98422.72;5110326;28;20027;-79
2022/09/15 08:24:21;;;;;;;6.82;3.17;;;;;;;23.26;70.59;98415.84;5126343;27;20030;-79
2022/09/15 08:26:47;;;;;;;7.47;3.33;;;;;;;23.18;71.05;98420.44;5111975;27;20028;-79
2022/09/15 08:29:12;;;;;;;7.85;3.50;;;;;;;22.91;70.52;98423.47;5102110;28;20388;-79
2022/09/15 08:31:38;;;;;;;5.72;2.92;;;;;;;22.52;71.67;98428.94;5107544;27;20027;-78
2022/09/15 08:34:05;;;;;;;6.43;2.85;;;;;;;22.27;72.66;98430.09;5101472;28;20534;-79
2022/09/15 08:36:32;;;;;;;8.25;3.15;;;;;;;22.21;73.62;98423.69;5103676;28;20069;-79
2022/09/15 08:38:57;;;;;;;11.02;3.22;;;;;;;22.35;73.46;98424.75;5102723;28;20019;-79
2022/09/15 08:41:38;;;;;;;9.18;3.13;;;;;;;22.30;73.11;98427.13;5105092;27;20661;-79
2022/09/15 08:44:38;;;;;;;6.10;2.92;;;;;;;22.06;73.09;98420.09;5114120;28;20039;-78
2022/09/15 08:47:15;;;;;;;7.88;3.08;;;;;;;21.71;74.46;98432.84;5113868;28;20107;-79
2022/09/15 08:49:59;;;;;;;6.28;3.40;;;;;;;21.74;75.07;98411.28;5114151;28;20491;-78
2022/09/15 08:52:37;;;;;;;9.93;3.38;;;;;;;21.87;75.07;98411.59;5114017;28;20015;-79
2022/09/15 08:55:35;;;;;;;6.35;3.38;;;;;;;21.82;74.88;98413.09;5113977;28;20039;-79
2022/09/15 08:58:01;;;;;;;7.75;3.58;;;;;;;21.64;75.00;98418.63;5086392;28;20120;-79
2022/09/15 09:00:28;;;;;;;7.40;3.15;;;;;;;21.45;74.40;98401.34;5055284;28;20108;-79
2022/09/15 09:03:15;;;;;;;7.90;3.33;;;;;;;21.27;75.93;98390.09;5049672;28;20504;-79
2022/09/15 09:05:51;;;;;;;6.88;3.35;;;;;;;21.08;76.63;98393.97;5050299;28;20051;-79
2022/09/15 09:08:26;;;;;;;5.53;3.28;;;;;;;20.97;77.34;98400.41;5050224;28;20506;-78
2022/09/15 09:10:57;;;;;;;8.82;3.53;;;;;;;20.79;77.20;98391.84;5050071;28;20107;-78
2022/09/15 09:13:52;;;;;;;5.55;3.40;;;;;;;20.65;77.06;98402.13;5050254;28;20032;-79
2022/09/15 09:16:30;;;;;;;6.95;3.40;;;;;;;20.40;77.18;98374.00;5050282;28;20037;-78
2022/09/15 09:19:19;;;;;;;9.25;3.50;;;;;;;20.32;78.10;98381.91;5050159;28;20468;-78
2022/09/15 09:22:16;;;;;;;7.82;3.17;;;;;;;20.30;79.03;98389.16;5050444;28;20037;-78
2022/09/15 09:24:44;;;;;;;8.82;3.22;;;;;;;20.29;79.62;98391.00;4952326;29;20457;-79
2022/09/15 09:27:23;;;;;;;5.47;2.97;;;;;;;20.21;79.80;98380.41;4952074;29;20031;-78
2022/09/15 09:29:54;;;;;;;5.50;3.00;;;;;;;20.09;79.97;98373.78;4952297;29;20031;-79
2022/09/15 09:32:26;;;;;;;6.70;3.00;;;;;;;20.10;80.90;98394.78;4952217;29;20031;-79
2022/09/15 09:35:11;;;;;;;8.05;3.90;;;;;;;20.06;81.41;98406.66;4984824;28;20311;-79
2022/09/15 09:37:36;;;;;;;7.82;3.25;;;;;;;19.97;80.66;98396.22;5010505;28;20022;-78
2022/09/15 09:40:02;;;;;;;5.05;3.08;;;;;;;19.90;80.11;98394.22;5010141;28;20088;-78
2022/09/15 09:42:30;;;;;;;9.82;3.97;;;;;;;19.89;80.55;98389.94;5010391;28;20678;-78
2022/09/15 09:44:56;;;;;;;8.55;4.10;;;;;;;19.83;81.39;98387.94;5010180;28;20042;-79
2022/09/15 09:47:26;;;;;;;9.82;3.65;;;;;;;19.85;81.22;98399.19;5010194;28;20057;-79
2022/09/15 09:49:52;;;;;;;7.60;3.40;;;;;;;19.74;81.46;98388.06;5010037;28;20033;-79
2022/09/15 09:52:35;;;;;;;10.00;3.95;;;;;;;19.83;81.62;98403.78;5010520;28;20022;-79
2022/09/15 09:55:17;;;;;;;8.90;3.50;;;;;;;19.73;81.74;98400.47;5009961;28;20041;-79
2022/09/15 09:57:43;;;;;;;7.05;3.13;;;;;;;19.90;81.98;98412.72;5010234;28;20041;-78
2022/09/15 10:00:35;;;;;;;13.25;3.50;;;;;;;20.05;82.61;98418.22;5019646;28;20570;-78
2022/09/15 10:03:23;;;;;;;7.97;3.25;;;;;;;20.10;81.82;98407.16;5092076;28;20471;-78
2022/09/15 10:06:19;;;;;;;8.60;3.78;;;;;;;20.27;81.09;98405.34;5092482;28;20062;-79
2022/09/15 10:09:07;;;;;;;5.72;3.30;;;;;;;20.41;80.73;98394.97;5092558;28;20077;-79
2022/09/15 10:11:40;;;;;;;8.80;3.90;;;;;;;20.38;79.70;98395.28;5092191;28;20055;-79
2022/09/15 10:14:15;;;;;;;5.70;3.25;;;;;;;20.36;80.12;98399.94;5091361;28;20101;-79
2022/09/15 10:16:40;;;;;;;7.88;4.22;;;;;;;20.15;80.55;98389.81;5092299;28;20024;-79
2022/09/15 10:19:10;;;;;;;14.68;4.85;;;;;;;19.91;80.67;98374.75;5092028;28;20023;-78
2022/09/15 10:21:38;;;;;;;9.85;4.25;;;;;;;19.84;81.62;98394.03;5092184;28;20032;-78
2022/09/15 10:24:23;;;;;;;8.15;4.60;;;;;;;19.67;82.94;98385.22;5092137;28;20020;-79
2022/09/15 10:26:49;;;;;;;9.52;4.72;;;;;;;19.54;82.63;98390.94;5092158;28;20031;-78
2022/09/15 10:29:17;;;;;;;11.85;5.13;;;;;;;19.42;84.00;98397.47;5090589;28;20020;-79
2022/09/15 10:31:43;;;;;;;6.20;3.88;;;;;;;19.34;84.35;98394.81;5092067;28;20080;-78
2022/09/15 10:34:31;;;;;;;13.73;4.05;;;;;;;19.27;84.76;98389.34;5091731;28;20413;-78
2022/09/15 10:37:26;;;;;;;10.73;3.20;;;;;;;19.44;85.19;98399.00;5091933;28;20028;-79
2022/09/15 10:39:52;;;;;;;8.13;3.03;;;;;;;19.57;84.93;98395.09;5091843;28;20077;-79
2022/09/15 10:42:59;;;;;;;7.32;3.58;;;;;;;19.78;83.56;98400.81;5091740;28;20016;-79
2022/09/15 10:45:38;;;;;;;7.72;3.50;;;;;;;19.83;82.56;98384.47;5092063;28;20532;-80
2022/09/15 10:48:25;;;;;;;7.50;3.33;;;;;;;19.91;83.25;98403.00;5091485;28;20461;-81
2022/09/15 10:51:14;;;;;;;8.93;3.72;;;;;;;20.03;82.18;98387.66;5091779;28;20020;-81
2022/09/15 10:53:54;;;;;;;8.15;3.75;;;;;;;20.24;82.37;98388.03;5091979;28;20027;-81
2022/09/15 10:56:47;;;;;;;6.95;3.08;;;;;;;20.32;82.03;98388.03;5091628;28;20077;-81
2022/09/15 10:59:24;;;;;;;5.32;2.97;;;;;;;20.48;81.45;98384.59;5090198;28;20472;-81
2022/09/15 11:02:04;;;;;;;9.20;4.20;;;;;;;20.51;81.19;98386.91;5091921;28;20371;-81
2022/09/15 11:04:48;;;;;;;8.55;3.28;;;;;;;20.47;80.18;98396.13;5091738;28;20473;-81
2022/09/15 11:07:25;;;;;;;9.40;3.58;;;;;;;20.51;79.95;98404.59;5091463;28;20111;-81
2022/09/15 11:10:01;;;;;;;10.05;3.78;;;;;;;20.46;79.31;98381.25;5091540;28;20016;-81
2022/09/15 11:12:53;;;;;;;8.75;3.75;;;;;;;20.34;78.64;98386.03;5090495;28;20061;-81
2022/09/15 11:15:37;;;;;;;10.13;4.00;;;;;;;20.31;78.91;98375.81;5048739;28;20041;-81
2022/09/15 11:18:39;;;;;;;8.82;3.55;;;;;;;20.41;78.21;98379.09;5048658;28;20059;-81
2022/09/15 11:21:12;;;;;;;7.82;3.47;;;;;;;20.51;78.78;98384.25;5048719;28;20083;-81
2022/09/15 11:23:56;;;;;;;6.05;3.58;;;;;;;20.47;78.86;98374.97;5048871;28;20458;-81
2022/09/15 11:26:34;;;;;;;6.90;3.53;;;;;;;20.63;78.97;98374.16;5052559;28;20112;-81
2022/09/15 11:29:04;;;;;;;5.95;4.10;;;;;;;20.74;78.62;98365.06;5052486;28;20025;-81
2022/09/15 11:31:37;;;;;;;6.13;3.25;;;;;;;20.74;77.71;98349.19;5052605;28;20040;-81
2022/09/15 11:34:20;;;;;;;8.00;3.08;;;;;;;20.76;77.06;98355.13;5052281;28;20098;-81
2022/09/15 11:37:01;;;;;;;7.75;3.88;;;;;;;20.79;76.74;98357.47;5052454;28;20029;-81
2022/09/15 11:39:36;;;;;;;7.93;3.90;;;;;;;20.73;76.44;98350.16;5052295;28;20063;-81